createdAt,value
2023-03-01T00:06:34.326Z,0
2023-03-01T00:16:34.337Z,0.02
2023-03-01T00:26:34.286Z,0.04
2023-03-01T00:36:34.653Z,-0.03
2023-03-01T00:46:34.628Z,-0.09
2023-03-01T00:56:34.446Z,-0.05
2023-03-01T01:06:34.417Z,-0.03
2023-03-01T01:16:34.391Z,-0.03
2023-03-01T01:26:34.542Z,-0.03
2023-03-01T01:36:34.291Z,-0.09
2023-03-01T01:46:34.767Z,-0.11
2023-03-01T01:56:34.282Z,-0.03
2023-03-01T02:06:34.315Z,-0.03
2023-03-01T02:16:34.677Z,0
2023-03-01T02:26:34.307Z,-0.06
2023-03-01T02:36:34.409Z,-0.04
2023-03-01T02:46:34.593Z,-0.04
2023-03-01T02:56:34.312Z,-0.05
2023-03-01T03:06:34.357Z,-0.08
2023-03-01T03:16:34.533Z,-0.04
2023-03-01T03:26:34.381Z,-0.12
2023-03-01T03:36:34.332Z,-0.16
2023-03-01T03:46:34.757Z,-0.1
2023-03-01T03:56:34.599Z,-0.01
2023-03-01T04:06:34.375Z,-0.04
2023-03-01T04:16:34.608Z,-0.11
2023-03-01T04:26:34.355Z,-0.15
2023-03-01T04:36:34.705Z,-0.07
2023-03-01T04:46:34.432Z,-0.06
2023-03-01T04:56:34.414Z,-0.07
2023-03-01T05:06:34.428Z,-0.06
2023-03-01T05:16:36.134Z,-0.04
2023-03-01T05:26:34.407Z,-0.07
2023-03-01T05:36:34.377Z,-0.01
2023-03-01T05:46:34.472Z,0.03
2023-03-01T05:56:34.434Z,0.05
2023-03-01T06:06:34.823Z,0.07
2023-03-01T06:16:34.432Z,0.06
2023-03-01T06:26:34.478Z,0.07
2023-03-01T06:36:34.432Z,0.08
2023-03-01T06:46:34.610Z,0.14
2023-03-01T06:56:42.412Z,0.19
2023-03-01T07:06:34.435Z,0.21
2023-03-01T07:16:34.999Z,0.26
2023-03-01T07:26:34.620Z,0.28
2023-03-01T07:36:34.575Z,0.34
2023-03-01T07:46:34.470Z,0.41
2023-03-01T07:56:34.498Z,0.52
2023-03-01T08:06:34.480Z,0.68
2023-03-01T08:16:34.799Z,0.68
2023-03-01T08:26:34.503Z,0.65
2023-03-01T08:36:34.774Z,0.82
2023-03-01T08:46:34.732Z,0.9
2023-03-01T08:56:34.476Z,0.99
2023-03-01T09:06:34.504Z,1.14
2023-03-01T09:16:34.685Z,1.45
2023-03-01T09:26:34.521Z,1.5
2023-03-01T09:36:34.704Z,1.45
2023-03-01T09:46:34.827Z,1.59
2023-03-01T09:56:34.506Z,1.63
2023-03-01T10:06:35.608Z,1.77
2023-03-01T10:16:34.524Z,1.88
2023-03-01T10:26:34.594Z,1.99
2023-03-01T10:36:34.522Z,1.92
2023-03-01T10:46:34.674Z,1.89
2023-03-01T10:56:34.534Z,1.98
2023-03-01T11:06:34.524Z,2.11
2023-03-01T11:16:34.633Z,1.95
2023-03-01T11:26:34.558Z,2.23
2023-03-01T11:36:34.529Z,2.33
2023-03-01T11:46:34.823Z,2.28
2023-03-01T11:56:34.541Z,2.27
2023-03-01T12:06:34.551Z,2.3
2023-03-01T12:16:39.165Z,2.22
2023-03-01T12:26:34.601Z,2.15
2023-03-01T12:36:34.547Z,2.13
2023-03-01T12:46:34.550Z,2.19
2023-03-01T12:56:34.650Z,2.15
2023-03-01T13:06:42.483Z,2.1
2023-03-01T13:16:34.815Z,2.15
2023-03-01T13:26:34.595Z,2.23
2023-03-01T13:36:35.008Z,2.26
2023-03-01T13:46:35.014Z,2.18
2023-03-01T13:56:34.550Z,2.17
2023-03-01T14:06:34.921Z,2.19
2023-03-01T14:16:34.612Z,2.08
2023-03-01T14:26:34.623Z,2.11
2023-03-01T14:36:34.589Z,2.11
2023-03-01T14:46:35.027Z,2.2
2023-03-01T14:56:34.591Z,2.18
2023-03-01T15:06:34.666Z,2.11
2023-03-01T15:16:34.707Z,2.05
2023-03-01T15:26:34.826Z,2.03
2023-03-01T15:36:34.583Z,1.99
2023-03-01T15:46:35.063Z,1.97
2023-03-01T15:56:34.604Z,1.85
2023-03-01T16:06:34.728Z,1.74
2023-03-01T16:16:35.019Z,1.66
2023-03-01T16:26:34.687Z,1.52
2023-03-01T16:36:34.620Z,1.41
2023-03-01T16:46:34.687Z,1.31
2023-03-01T16:56:34.789Z,1.22
2023-03-01T17:06:34.780Z,1.13
2023-03-01T17:16:34.651Z,1.05
2023-03-01T17:26:34.624Z,0.94
2023-03-01T17:36:34.662Z,0.93
2023-03-01T17:46:34.699Z,0.93
2023-03-01T17:56:34.640Z,0.89
2023-03-01T18:06:34.746Z,0.81
2023-03-01T18:16:34.932Z,0.78
2023-03-01T18:26:34.976Z,0.7
2023-03-01T18:36:34.987Z,0.72
2023-03-01T18:46:36.930Z,0.67
2023-03-01T18:56:34.885Z,0.66
2023-03-01T19:06:34.969Z,0.65
2023-03-01T19:16:35.189Z,0.69
2023-03-01T19:26:35.226Z,0.73
2023-03-01T19:36:34.646Z,0.69
2023-03-01T19:46:35.441Z,0.65
2023-03-01T19:56:35.332Z,0.6
2023-03-01T20:06:35.067Z,0.57
2023-03-01T20:16:35.243Z,0.56
2023-03-01T20:26:34.911Z,0.53
2023-03-01T20:36:35.158Z,0.48
2023-03-01T20:46:35.043Z,0.46
2023-03-01T20:56:35.245Z,0.5
2023-03-01T21:06:35.188Z,0.47
2023-03-01T21:16:35.113Z,0.48
2023-03-01T21:26:35.012Z,0.46
2023-03-01T21:36:35.381Z,0.46
2023-03-01T21:46:35.049Z,0.44
2023-03-01T21:56:35.095Z,0.45
2023-03-01T22:06:35.199Z,0.42
2023-03-01T22:16:35.236Z,0.43
2023-03-01T22:26:35.368Z,0.38
2023-03-01T22:36:34.943Z,0.35
2023-03-01T22:46:35.159Z,0.32
2023-03-01T22:56:35.088Z,0.31
2023-03-01T23:06:35.403Z,0.3
2023-03-01T23:16:35.082Z,0.31
2023-03-01T23:26:35.076Z,0.31
2023-03-01T23:36:35.263Z,0.3
2023-03-01T23:46:35.461Z,0.3
2023-03-01T23:56:35.029Z,0.33
